sensor_id;sensor_type;location;lat;lon;timestamp;pressure;altitude;pressure_sealevel;temperature;humidity
55187;BME280;55457;52.002;5.464;2023-11-19T00:01:07;100577.78;;;20.51;58.47
55187;BME280;55457;52.002;5.464;2023-11-19T00:03:33;100580.25;;;20.53;58.18
55187;BME280;55457;52.002;5.464;2023-11-19T00:05:59;100591.09;;;20.53;58.46
55187;BME280;55457;52.002;5.464;2023-11-19T00:08:24;100572.34;;;20.51;58.23
55187;BME280;55457;52.002;5.464;2023-11-19T00:10:50;100575.91;;;20.52;58.19
55187;BME280;55457;52.002;5.464;2023-11-19T00:13:16;100554.47;;;20.50;58.23
55187;BME280;55457;52.002;5.464;2023-11-19T00:15:41;100560.47;;;20.52;58.41
55187;BME280;55457;52.002;5.464;2023-11-19T00:18:07;100566.94;;;20.51;58.62
55187;BME280;55457;52.002;5.464;2023-11-19T00:20:32;100564.50;;;20.50;58.64
55187;BME280;55457;52.002;5.464;2023-11-19T00:22:57;100560.47;;;20.52;58.40
55187;BME280;55457;52.002;5.464;2023-11-19T00:25:23;100556.97;;;20.52;58.57
55187;BME280;55457;52.002;5.464;2023-11-19T00:27:48;100563.19;;;20.52;58.27
55187;BME280;55457;52.002;5.464;2023-11-19T00:30:13;100557.78;;;20.52;58.34
55187;BME280;55457;52.002;5.464;2023-11-19T00:32:40;100556.13;;;20.51;58.27
55187;BME280;55457;52.002;5.464;2023-11-19T00:35:06;100574.84;;;20.53;58.45
55187;BME280;55457;52.002;5.464;2023-11-19T00:37:32;100572.34;;;20.51;58.50
55187;BME280;55457;52.002;5.464;2023-11-19T00:39:57;100564.00;;;20.53;58.93
55187;BME280;55457;52.002;5.464;2023-11-19T00:42:23;100565.63;;;20.54;58.67
55187;BME280;55457;52.002;5.464;2023-11-19T00:44:50;100554.00;;;20.53;58.54
55187;BME280;55457;52.002;5.464;2023-11-19T00:47:15;100554.81;;;20.54;58.19
55187;BME280;55457;52.002;5.464;2023-11-19T00:49:40;100547.75;;;20.53;58.61
55187;BME280;55457;52.002;5.464;2023-11-19T00:52:06;100551.28;;;20.53;58.31
55187;BME280;55457;52.002;5.464;2023-11-19T00:54:32;100537.75;;;20.53;58.49
55187;BME280;55457;52.002;5.464;2023-11-19T00:56:57;100543.16;;;20.53;58.40
55187;BME280;55457;52.002;5.464;2023-11-19T00:59:22;100533.97;;;20.54;58.26
55187;BME280;55457;52.002;5.464;2023-11-19T01:01:48;100532.34;;;20.53;58.49
55187;BME280;55457;52.002;5.464;2023-11-19T01:04:14;100541.28;;;20.54;58.45
55187;BME280;55457;52.002;5.464;2023-11-19T01:06:40;100533.97;;;20.54;58.06
55187;BME280;55457;52.002;5.464;2023-11-19T01:09:05;100533.97;;;20.54;58.53
55187;BME280;55457;52.002;5.464;2023-11-19T01:11:30;100541.00;;;20.55;58.45
55187;BME280;55457;52.002;5.464;2023-11-19T01:13:56;100546.44;;;20.55;58.11
55187;BME280;55457;52.002;5.464;2023-11-19T01:16:22;100552.66;;;20.56;58.42
55187;BME280;55457;52.002;5.464;2023-11-19T01:18:48;100528.56;;;20.54;58.26
55187;BME280;55457;52.002;5.464;2023-11-19T01:21:13;100526.41;;;20.56;58.15
55187;BME280;55457;52.002;5.464;2023-11-19T01:23:42;100517.72;;;20.54;58.48
55187;BME280;55457;52.002;5.464;2023-11-19T01:26:11;100513.94;;;20.55;58.57
55187;BME280;55457;52.002;5.464;2023-11-19T01:28:38;100510.41;;;20.55;58.19
55187;BME280;55457;52.002;5.464;2023-11-19T01:31:05;100512.06;;;20.56;58.08
55187;BME280;55457;52.002;5.464;2023-11-19T01:33:30;100517.22;;;20.57;58.03
55187;BME280;55457;52.002;5.464;2023-11-19T01:35:56;100520.16;;;20.56;58.46
55187;BME280;55457;52.002;5.464;2023-11-19T01:38:24;100505.81;;;20.55;58.23
55187;BME280;55457;52.002;5.464;2023-11-19T01:40:49;100515.56;;;20.56;58.19
55187;BME280;55457;52.002;5.464;2023-11-19T01:43:31;100520.97;;;20.56;58.57
55187;BME280;55457;52.002;5.464;2023-11-19T01:45:57;100516.66;;;20.55;58.46
55187;BME280;55457;52.002;5.464;2023-11-19T01:48:22;100518.28;;;20.56;58.40
55187;BME280;55457;52.002;5.464;2023-11-19T01:50:47;100515.56;;;20.56;58.52
55187;BME280;55457;52.002;5.464;2023-11-19T01:53:13;100509.34;;;20.56;58.31
55187;BME280;55457;52.002;5.464;2023-11-19T01:55:38;100501.47;;;20.54;58.46
55187;BME280;55457;52.002;5.464;2023-11-19T01:58:04;100508.53;;;20.55;58.28
55187;BME280;55457;52.002;5.464;2023-11-19T02:00:30;100510.69;;;20.53;58.32
55187;BME280;55457;52.002;5.464;2023-11-19T02:02:58;100513.94;;;20.55;58.40
55187;BME280;55457;52.002;5.464;2023-11-19T02:05:24;100508.53;;;20.55;58.43
55187;BME280;55457;52.002;5.464;2023-11-19T02:07:50;100493.34;;;20.54;58.29
55187;BME280;55457;52.002;5.464;2023-11-19T02:10:16;100503.13;;;20.55;58.07
55187;BME280;55457;52.002;5.464;2023-11-19T02:12:44;100508.22;;;20.52;58.08
55187;BME280;55457;52.002;5.464;2023-11-19T02:15:10;100512.31;;;20.54;58.11
55187;BME280;55457;52.002;5.464;2023-11-19T02:17:36;100522.31;;;20.54;58.30
55187;BME280;55457;52.002;5.464;2023-11-19T02:20:03;100515.84;;;20.55;58.20
55187;BME280;55457;52.002;5.464;2023-11-19T02:22:31;100510.69;;;20.53;58.00
55187;BME280;55457;52.002;5.464;2023-11-19T02:24:59;100513.38;;;20.53;58.03
55187;BME280;55457;52.002;5.464;2023-11-19T02:30:07;100523.13;;;20.54;58.10
55187;BME280;55457;52.002;5.464;2023-11-19T02:32:34;100530.44;;;20.54;57.85
55187;BME280;55457;52.002;5.464;2023-11-19T02:35:01;100518.81;;;20.53;57.96
55187;BME280;55457;52.002;5.464;2023-11-19T02:37:26;100523.41;;;20.53;58.12
55187;BME280;55457;52.002;5.464;2023-11-19T02:39:53;100520.69;;;20.53;57.85
55187;BME280;55457;52.002;5.464;2023-11-19T02:42:18;100522.59;;;20.52;57.90
55187;BME280;55457;52.002;5.464;2023-11-19T02:44:44;100523.63;;;20.51;58.21
55187;BME280;55457;52.002;5.464;2023-11-19T02:47:11;100535.03;;;20.53;58.21
55187;BME280;55457;52.002;5.464;2023-11-19T02:49:36;100520.91;;;20.51;57.84
55187;BME280;55457;52.002;5.464;2023-11-19T02:52:02;100506.34;;;20.52;57.79
55187;BME280;55457;52.002;5.464;2023-11-19T02:54:31;100509.88;;;20.53;57.84
55187;BME280;55457;52.002;5.464;2023-11-19T02:57:00;100519.88;;;20.52;58.00
55187;BME280;55457;52.002;5.464;2023-11-19T02:59:27;100514.19;;;20.54;58.14
55187;BME280;55457;52.002;5.464;2023-11-19T03:01:53;100509.06;;;20.52;58.04
55187;BME280;55457;52.002;5.464;2023-11-19T03:04:20;100510.09;;;20.51;57.83
55187;BME280;55457;52.002;5.464;2023-11-19T03:06:46;100517.16;;;20.52;57.88
55187;BME280;55457;52.002;5.464;2023-11-19T03:09:11;100524.47;;;20.52;57.76
55187;BME280;55457;52.002;5.464;2023-11-19T03:11:37;100506.84;;;20.49;57.81
55187;BME280;55457;52.002;5.464;2023-11-19T03:14:03;100512.81;;;20.51;57.86
55187;BME280;55457;52.002;5.464;2023-11-19T03:16:28;100502.81;;;20.52;57.77
55187;BME280;55457;52.002;5.464;2023-11-19T03:18:54;100508.47;;;20.50;57.79
55187;BME280;55457;52.002;5.464;2023-11-19T03:21:27;100511.97;;;20.51;57.70
55187;BME280;55457;52.002;5.464;2023-11-19T03:23:53;100507.91;;;20.48;57.88
55187;BME280;55457;52.002;5.464;2023-11-19T03:26:18;100505.47;;;20.47;57.58
55187;BME280;55457;52.002;5.464;2023-11-19T03:28:43;100504.94;;;20.50;57.88
55187;BME280;55457;52.002;5.464;2023-11-19T03:31:08;100510.63;;;20.48;57.47
55187;BME280;55457;52.002;5.464;2023-11-19T03:33:34;100509.53;;;20.49;57.73
55187;BME280;55457;52.002;5.464;2023-11-19T03:35:59;100509.53;;;20.49;57.74
55187;BME280;55457;52.002;5.464;2023-11-19T03:38:24;100511.69;;;20.47;57.57
55187;BME280;55457;52.002;5.464;2023-11-19T03:40:50;100495.44;;;20.47;57.52
55187;BME280;55457;52.002;5.464;2023-11-19T03:43:15;100490.03;;;20.47;57.79
55187;BME280;55457;52.002;5.464;2023-11-19T03:45:41;100481.66;;;20.49;57.57
55187;BME280;55457;52.002;5.464;2023-11-19T03:48:06;100486.25;;;20.48;57.35
55187;BME280;55457;52.002;5.464;2023-11-19T03:50:31;100501.69;;;20.48;57.85
55187;BME280;55457;52.002;5.464;2023-11-19T03:52:56;100506.84;;;20.49;57.69
55187;BME280;55457;52.002;5.464;2023-11-19T03:55:22;100511.44;;;20.49;57.86
55187;BME280;55457;52.002;5.464;2023-11-19T03:57:47;100508.72;;;20.49;57.37
55187;BME280;55457;52.002;5.464;2023-11-19T04:00:14;100514.13;;;20.49;57.49
55187;BME280;55457;52.002;5.464;2023-11-19T04:02:40;100516.03;;;20.48;57.56
55187;BME280;55457;52.002;5.464;2023-11-19T04:05:06;100515.22;;;20.48;57.32
55187;BME280;55457;52.002;5.464;2023-11-19T04:07:32;100513.31;;;20.48;57.46
55187;BME280;55457;52.002;5.464;2023-11-19T04:09:57;100518.75;;;20.48;57.38
55187;BME280;55457;52.002;5.464;2023-11-19T04:12:23;100520.38;;;20.49;57.38
55187;BME280;55457;52.002;5.464;2023-11-19T04:14:48;100520.38;;;20.49;57.20
55187;BME280;55457;52.002;5.464;2023-11-19T04:17:13;100523.06;;;20.49;57.09
55187;BME280;55457;52.002;5.464;2023-11-19T04:19:39;100529.56;;;20.48;57.22
55187;BME280;55457;52.002;5.464;2023-11-19T04:22:07;100532.00;;;20.50;57.27
55187;BME280;55457;52.002;5.464;2023-11-19T04:24:33;100532.81;;;20.50;57.24
55187;BME280;55457;52.002;5.464;2023-11-19T04:26:58;100534.97;;;20.48;57.28
55187;BME280;55457;52.002;5.464;2023-11-19T04:29:23;100533.91;;;20.49;57.13
55187;BME280;55457;52.002;5.464;2023-11-19T04:31:49;100536.59;;;20.49;57.17
55187;BME280;55457;52.002;5.464;2023-11-19T04:34:14;100528.50;;;20.49;57.18
55187;BME280;55457;52.002;5.464;2023-11-19T04:36:39;100528.75;;;20.48;56.96
55187;BME280;55457;52.002;5.464;2023-11-19T04:39:05;100539.31;;;20.49;57.08
55187;BME280;55457;52.002;5.464;2023-11-19T04:41:35;100534.97;;;20.48;56.63
55187;BME280;55457;52.002;5.464;2023-11-19T04:44:01;100529.56;;;20.48;56.88
55187;BME280;55457;52.002;5.464;2023-11-19T04:46:26;100537.44;;;20.50;56.74
55187;BME280;55457;52.002;5.464;2023-11-19T04:48:52;100523.34;;;20.48;56.89
55187;BME280;55457;52.002;5.464;2023-11-19T04:51:17;100531.19;;;20.49;56.86
55187;BME280;55457;52.002;5.464;2023-11-19T04:53:42;100523.06;;;20.49;56.74
55187;BME280;55457;52.002;5.464;2023-11-19T04:56:09;100522.53;;;20.47;56.56
55187;BME280;55457;52.002;5.464;2023-11-19T04:58:34;100525.44;;;20.46;56.73
55187;BME280;55457;52.002;5.464;2023-11-19T05:01:01;100517.91;;;20.48;56.80
55187;BME280;55457;52.002;5.464;2023-11-19T05:03:26;100524.97;;;20.49;56.56
55187;BME280;55457;52.002;5.464;2023-11-19T05:05:52;100518.75;;;20.48;56.44
55187;BME280;55457;52.002;5.464;2023-11-19T05:08:17;100522.53;;;20.47;56.55
55187;BME280;55457;52.002;5.464;2023-11-19T05:10:42;100527.94;;;20.47;56.34
55187;BME280;55457;52.002;5.464;2023-11-19T05:13:08;100528.75;;;20.48;56.15
55187;BME280;55457;52.002;5.464;2023-11-19T05:15:33;100532.53;;;20.47;56.37
55187;BME280;55457;52.002;5.464;2023-11-19T05:17:58;100530.84;;;20.46;56.24
55187;BME280;55457;52.002;5.464;2023-11-19T05:20:24;100542.50;;;20.46;56.46
55187;BME280;55457;52.002;5.464;2023-11-19T05:22:49;100533.53;;;20.46;56.19
55187;BME280;55457;52.002;5.464;2023-11-19T05:25:16;100542.50;;;20.46;56.54
55187;BME280;55457;52.002;5.464;2023-11-19T05:27:41;100537.94;;;20.47;56.61
55187;BME280;55457;52.002;5.464;2023-11-19T05:30:07;100543.34;;;20.47;56.46
55187;BME280;55457;52.002;5.464;2023-11-19T05:32:33;100525.22;;;20.47;56.24
55187;BME280;55457;52.002;5.464;2023-11-19T05:34:58;100522.53;;;20.47;56.24
55187;BME280;55457;52.002;5.464;2023-11-19T05:37:24;100524.41;;;20.47;56.38
55187;BME280;55457;52.002;5.464;2023-11-19T05:39:50;100511.69;;;20.47;56.11
55187;BME280;55457;52.002;5.464;2023-11-19T05:42:15;100527.94;;;20.47;56.08
55187;BME280;55457;52.002;5.464;2023-11-19T05:44:41;100522.53;;;20.47;55.97
55187;BME280;55457;52.002;5.464;2023-11-19T05:47:06;100529.81;;;20.47;55.90
55187;BME280;55457;52.002;5.464;2023-11-19T05:49:32;100537.94;;;20.47;55.89
55187;BME280;55457;52.002;5.464;2023-11-19T05:51:58;100529.81;;;20.47;55.91
55187;BME280;55457;52.002;5.464;2023-11-19T05:54:23;100537.09;;;20.46;55.85
55187;BME280;55457;52.002;5.464;2023-11-19T05:56:48;100531.69;;;20.46;55.95
55187;BME280;55457;52.002;5.464;2023-11-19T05:59:14;100522.97;;;20.44;55.89
55187;BME280;55457;52.002;5.464;2023-11-19T06:01:43;100537.09;;;20.46;55.74
55187;BME280;55457;52.002;5.464;2023-11-19T06:04:08;100536.25;;;20.46;55.77
55187;BME280;55457;52.002;5.464;2023-11-19T06:06:34;100542.50;;;20.46;55.59
55187;BME280;55457;52.002;5.464;2023-11-19T06:08:59;100528.41;;;20.44;55.79
55187;BME280;55457;52.002;5.464;2023-11-19T06:11:24;100515.94;;;20.43;55.79
55187;BME280;55457;52.002;5.464;2023-11-19T06:13:52;100520.84;;;20.46;55.95
55187;BME280;55457;52.002;5.464;2023-11-19T06:16:18;100524.59;;;20.45;55.86
55187;BME280;55457;52.002;5.464;2023-11-19T06:18:43;100513.78;;;20.45;55.89
55187;BME280;55457;52.002;5.464;2023-11-19T06:21:09;100527.31;;;20.45;56.08
55187;BME280;55457;52.002;5.464;2023-11-19T06:23:35;100522.97;;;20.44;55.99
55187;BME280;55457;52.002;5.464;2023-11-19T06:26:00;100533.53;;;20.46;55.90
55187;BME280;55457;52.002;5.464;2023-11-19T06:28:26;100543.56;;;20.45;56.01
55187;BME280;55457;52.002;5.464;2023-11-19T06:30:51;100535.44;;;20.45;55.86
55187;BME280;55457;52.002;5.464;2023-11-19T06:33:17;100531.91;;;20.45;55.98
55187;BME280;55457;52.002;5.464;2023-11-19T06:35:42;100546.25;;;20.45;55.72
55187;BME280;55457;52.002;5.464;2023-11-19T06:38:07;100541.66;;;20.46;55.74
55187;BME280;55457;52.002;5.464;2023-11-19T06:40:34;100547.94;;;20.46;55.96
55187;BME280;55457;52.002;5.464;2023-11-19T06:43:03;100547.94;;;20.46;55.69
55187;BME280;55457;52.002;5.464;2023-11-19T06:45:29;100540.66;;;20.47;56.04
55187;BME280;55457;52.002;5.464;2023-11-19T06:47:54;100547.94;;;20.46;56.66
55187;BME280;55457;52.002;5.464;2023-11-19T06:50:20;100556.03;;;20.46;57.10
55187;BME280;55457;52.002;5.464;2023-11-19T06:52:45;100560.63;;;20.46;57.24
55187;BME280;55457;52.002;5.464;2023-11-19T06:55:11;100569.81;;;20.45;57.81
55187;BME280;55457;52.002;5.464;2023-11-19T06:57:37;100560.88;;;20.44;57.34
55187;BME280;55457;52.002;5.464;2023-11-19T07:00:02;100557.59;;;20.42;57.37
55187;BME280;55457;52.002;5.464;2023-11-19T07:02:30;100561.38;;;20.41;57.45
55187;BME280;55457;52.002;5.464;2023-11-19T07:04:56;100569.50;;;20.41;57.60
55187;BME280;55457;52.002;5.464;2023-11-19T07:07:22;100567.84;;;20.40;57.57
55187;BME280;55457;52.002;5.464;2023-11-19T07:09:47;100580.56;;;20.40;57.61
55187;BME280;55457;52.002;5.464;2023-11-19T07:12:13;100577.03;;;20.39;57.75
55187;BME280;55457;52.002;5.464;2023-11-19T07:14:39;100578.94;;;20.39;57.64
55187;BME280;55457;52.002;5.464;2023-11-19T07:17:05;100579.75;;;20.39;57.82
55187;BME280;55457;52.002;5.464;2023-11-19T07:19:31;100588.13;;;20.38;57.43
55187;BME280;55457;52.002;5.464;2023-11-19T07:21:56;100592.72;;;20.37;57.52
55187;BME280;55457;52.002;5.464;2023-11-19T07:24:22;100593.53;;;20.38;57.68
55187;BME280;55457;52.002;5.464;2023-11-19T07:26:48;100592.72;;;20.37;57.69
55187;BME280;55457;52.002;5.464;2023-11-19T07:29:14;100598.13;;;20.37;57.46
55187;BME280;55457;52.002;5.464;2023-11-19T07:31:40;100611.66;;;20.37;57.62
55187;BME280;55457;52.002;5.464;2023-11-19T07:34:05;100600.25;;;20.35;57.54
55187;BME280;55457;52.002;5.464;2023-11-19T07:36:31;100604.03;;;20.34;57.51
55187;BME280;55457;52.002;5.464;2023-11-19T07:38:58;100593.81;;;20.36;57.46
55187;BME280;55457;52.002;5.464;2023-11-19T07:41:23;100606.47;;;20.36;57.59
55187;BME280;55457;52.002;5.464;2023-11-19T07:43:50;100608.38;;;20.35;57.38
55187;BME280;55457;52.002;5.464;2023-11-19T07:46:17;100602.41;;;20.33;57.21
55187;BME280;55457;52.002;5.464;2023-11-19T07:48:45;100606.75;;;20.34;57.47
55187;BME280;55457;52.002;5.464;2023-11-19T07:51:12;100608.38;;;20.35;57.34
55187;BME280;55457;52.002;5.464;2023-11-19T07:53:38;100602.97;;;20.35;57.36
55187;BME280;55457;52.002;5.464;2023-11-19T07:56:04;100583.47;;;20.33;57.41
55187;BME280;55457;52.002;5.464;2023-11-19T07:58:29;100594.28;;;20.33;57.30
55187;BME280;55457;52.002;5.464;2023-11-19T08:00:54;100590.25;;;20.36;57.19
55187;BME280;55457;52.002;5.464;2023-11-19T08:03:20;100603.56;;;20.37;57.40
55187;BME280;55457;52.002;5.464;2023-11-19T08:05:48;100593.81;;;20.36;57.05
55187;BME280;55457;52.002;5.464;2023-11-19T08:08:13;100601.91;;;20.36;57.18
55187;BME280;55457;52.002;5.464;2023-11-19T08:10:39;100603.56;;;20.37;57.06
55187;BME280;55457;52.002;5.464;2023-11-19T08:13:05;100598.13;;;20.37;57.08
55187;BME280;55457;52.002;5.464;2023-11-19T08:15:31;100597.31;;;20.37;57.06
55187;BME280;55457;52.002;5.464;2023-11-19T08:17:56;100607.34;;;20.36;57.11
55187;BME280;55457;52.002;5.464;2023-11-19T08:20:22;100607.34;;;20.36;56.98
55187;BME280;55457;52.002;5.464;2023-11-19T08:22:47;100601.06;;;20.36;57.02
55187;BME280;55457;52.002;5.464;2023-11-19T08:25:12;100599.22;;;20.36;56.95
55187;BME280;55457;52.002;5.464;2023-11-19T08:27:38;100611.91;;;20.36;56.91
55187;BME280;55457;52.002;5.464;2023-11-19T08:30:04;100600.25;;;20.35;57.00
55187;BME280;55457;52.002;5.464;2023-11-19T08:32:31;100615.44;;;20.36;56.87
55187;BME280;55457;52.002;5.464;2023-11-19T08:34:56;100588.63;;;20.34;56.78
55187;BME280;55457;52.002;5.464;2023-11-19T08:37:22;100617.31;;;20.36;56.69
55187;BME280;55457;52.002;5.464;2023-11-19T08:39:48;100611.09;;;20.35;56.72
55187;BME280;55457;52.002;5.464;2023-11-19T08:42:14;100604.63;;;20.36;56.64
55187;BME280;55457;52.002;5.464;2023-11-19T08:44:40;100611.66;;;20.37;56.55
55187;BME280;55457;52.002;5.464;2023-11-19T08:47:08;100621.44;;;20.38;56.65
55187;BME280;55457;52.002;5.464;2023-11-19T08:49:34;100616.00;;;20.38;56.72
55187;BME280;55457;52.002;5.464;2023-11-19T08:51:59;100615.53;;;20.41;56.48
55187;BME280;55457;52.002;5.464;2023-11-19T08:54:25;100618.78;;;20.43;56.61
55187;BME280;55457;52.002;5.464;2023-11-19T08:56:50;100620.44;;;20.44;56.74
55187;BME280;55457;52.002;5.464;2023-11-19T08:59:16;100620.44;;;20.44;57.03
55187;BME280;55457;52.002;5.464;2023-11-19T09:01:41;100613.94;;;20.45;57.12
55187;BME280;55457;52.002;5.464;2023-11-19T09:04:06;100610.41;;;20.45;56.98
55187;BME280;55457;52.002;5.464;2023-11-19T09:06:32;100620.16;;;20.46;57.15
55187;BME280;55457;52.002;5.464;2023-11-19T09:08:58;100615.59;;;20.46;57.29
55187;BME280;55457;52.002;5.464;2023-11-19T09:11:27;100619.16;;;20.47;57.15
55187;BME280;55457;52.002;5.464;2023-11-19T09:13:52;100613.47;;;20.48;57.33
55187;BME280;55457;52.002;5.464;2023-11-19T09:16:18;100613.47;;;20.48;57.37
55187;BME280;55457;52.002;5.464;2023-11-19T09:18:43;100608.06;;;20.48;57.23
55187;BME280;55457;52.002;5.464;2023-11-19T09:21:11;100607.25;;;20.48;57.14
55187;BME280;55457;52.002;5.464;2023-11-19T09:23:36;100607.47;;;20.46;57.00
55187;BME280;55457;52.002;5.464;2023-11-19T09:26:05;100619.97;;;20.47;56.70
55187;BME280;55457;52.002;5.464;2023-11-19T09:28:31;100609.13;;;20.47;56.86
55187;BME280;55457;52.002;5.464;2023-11-19T09:30:56;100609.13;;;20.47;56.52
55187;BME280;55457;52.002;5.464;2023-11-19T09:33:22;100619.97;;;20.47;56.74
55187;BME280;55457;52.002;5.464;2023-11-19T09:35:47;100616.19;;;20.48;56.95
55187;BME280;55457;52.002;5.464;2023-11-19T09:38:14;100620.03;;;20.52;56.87
55187;BME280;55457;52.002;5.464;2023-11-19T09:40:40;100616.75;;;20.50;56.83
55187;BME280;55457;52.002;5.464;2023-11-19T09:43:07;100618.38;;;20.51;56.66
55187;BME280;55457;52.002;5.464;2023-11-19T09:45:45;100623.56;;;20.53;56.79
55187;BME280;55457;52.002;5.464;2023-11-19T09:48:13;100618.97;;;20.53;56.54
55187;BME280;55457;52.002;5.464;2023-11-19T09:50:39;100616.25;;;20.53;56.50
55187;BME280;55457;52.002;5.464;2023-11-19T09:53:05;100614.38;;;20.54;56.77
55187;BME280;55457;52.002;5.464;2023-11-19T09:55:31;100610.84;;;20.53;56.77
55187;BME280;55457;52.002;5.464;2023-11-19T09:57:57;100613.56;;;20.53;56.51
55187;BME280;55457;52.002;5.464;2023-11-19T10:00:26;100609.22;;;20.52;56.63
55187;BME280;55457;52.002;5.464;2023-11-19T10:02:52;100618.38;;;20.51;56.77
55187;BME280;55457;52.002;5.464;2023-11-19T10:05:19;100608.63;;;20.50;56.45
55187;BME280;55457;52.002;5.464;2023-11-19T10:07:46;100608.63;;;20.50;56.53
55187;BME280;55457;52.002;5.464;2023-11-19T10:10:12;100610.25;;;20.51;56.66
55187;BME280;55457;52.002;5.464;2023-11-19T10:12:40;100591.63;;;20.55;56.26
55187;BME280;55457;52.002;5.464;2023-11-19T10:15:06;100590.34;;;20.57;56.21
55187;BME280;55457;52.002;5.464;2023-11-19T10:17:34;100583.03;;;20.58;56.25
55187;BME280;55457;52.002;5.464;2023-11-19T10:20:00;100590.88;;;20.59;56.27
55187;BME280;55457;52.002;5.464;2023-11-19T10:22:27;100580.63;;;20.62;56.33
55187;BME280;55457;52.002;5.464;2023-11-19T10:24:52;100579.31;;;20.64;56.19
55187;BME280;55457;52.002;5.464;2023-11-19T10:27:18;100580.94;;;20.65;56.01
55187;BME280;55457;52.002;5.464;2023-11-19T10:29:47;100586.09;;;20.67;56.23
55187;BME280;55457;52.002;5.464;2023-11-19T10:32:13;100573.16;;;20.69;56.22
55187;BME280;55457;52.002;5.464;2023-11-19T10:34:39;100571.00;;;20.71;56.13
55187;BME280;55457;52.002;5.464;2023-11-19T10:37:06;100569.91;;;20.72;56.22
55187;BME280;55457;52.002;5.464;2023-11-19T10:39:52;100572.94;;;20.75;55.91
55187;BME280;55457;52.002;5.464;2023-11-19T10:42:19;100569.97;;;20.77;56.20
55187;BME280;55457;52.002;5.464;2023-11-19T10:44:45;100567.25;;;20.77;55.59
55187;BME280;55457;52.002;5.464;2023-11-19T10:47:10;100569.41;;;20.75;55.68
55187;BME280;55457;52.002;5.464;2023-11-19T10:49:36;100568.59;;;20.74;55.57
55187;BME280;55457;52.002;5.464;2023-11-19T10:52:05;100561.28;;;20.75;55.88
55187;BME280;55457;52.002;5.464;2023-11-19T10:54:30;100568.09;;;20.77;55.73
55187;BME280;55457;52.002;5.464;2023-11-19T10:57:01;100563.50;;;20.78;55.83
55187;BME280;55457;52.002;5.464;2023-11-19T10:59:30;100557.84;;;20.79;55.53
55187;BME280;55457;52.002;5.464;2023-11-19T11:01:57;100564.88;;;20.80;55.43
55187;BME280;55457;52.002;5.464;2023-11-19T11:04:24;100575.44;;;20.82;55.61
55187;BME280;55457;52.002;5.464;2023-11-19T11:06:54;100563.56;;;20.83;55.62
55187;BME280;55457;52.002;5.464;2023-11-19T11:09:20;100569.81;;;20.83;55.45
55187;BME280;55457;52.002;5.464;2023-11-19T11:11:46;100569.81;;;20.83;55.32
55187;BME280;55457;52.002;5.464;2023-11-19T11:14:13;100572.75;;;20.82;55.36
55187;BME280;55457;52.002;5.464;2023-11-19T11:16:44;100565.69;;;20.81;55.23
55187;BME280;55457;52.002;5.464;2023-11-19T11:19:11;100569.47;;;20.80;55.48
55187;BME280;55457;52.002;5.464;2023-11-19T11:21:39;100579.50;;;20.79;55.24
55187;BME280;55457;52.002;5.464;2023-11-19T11:30:06;100567.22;;;20.72;55.37
55187;BME280;55457;52.002;5.464;2023-11-19T11:32:43;100564.25;;;20.73;55.54
55187;BME280;55457;52.002;5.464;2023-11-19T11:38:01;100560.22;;;20.76;55.53
55187;BME280;55457;52.002;5.464;2023-11-19T11:40:28;100557.84;;;20.79;54.99
55187;BME280;55457;52.002;5.464;2023-11-19T11:42:53;100554.88;;;20.81;55.28
55187;BME280;55457;52.002;5.464;2023-11-19T11:45:19;100548.91;;;20.79;55.53
55187;BME280;55457;52.002;5.464;2023-11-19T11:50:20;100558.16;;;20.83;55.58
55187;BME280;55457;52.002;5.464;2023-11-19T11:55:37;100547.56;;;20.81;55.28
55187;BME280;55457;52.002;5.464;2023-11-19T11:58:03;100552.47;;;20.84;55.32
55187;BME280;55457;52.002;5.464;2023-11-19T12:00:31;100545.50;;;20.89;55.27
55187;BME280;55457;52.002;5.464;2023-11-19T12:02:59;100545.78;;;20.92;55.68
55187;BME280;55457;52.002;5.464;2023-11-19T12:05:27;100544.69;;;20.93;55.28
55187;BME280;55457;52.002;5.464;2023-11-19T12:07:56;100540.34;;;20.92;55.40
55187;BME280;55457;52.002;5.464;2023-11-19T12:10:26;100530.97;;;21.00;55.49
55187;BME280;55457;52.002;5.464;2023-11-19T12:13:09;100537.81;;;21.07;54.45
55187;BME280;55457;52.002;5.464;2023-11-19T12:18:26;100537.25;;;21.05;54.52
55187;BME280;55457;52.002;5.464;2023-11-19T12:20:52;100521.00;;;21.05;54.74
55187;BME280;55457;52.002;5.464;2023-11-19T12:23:17;100528.56;;;21.03;54.83
55187;BME280;55457;52.002;5.464;2023-11-19T12:25:43;100522.03;;;20.99;54.79
55187;BME280;55457;52.002;5.464;2023-11-19T12:28:14;100534.44;;;20.95;54.75
55187;BME280;55457;52.002;5.464;2023-11-19T12:30:41;100536.34;;;20.95;55.06
55187;BME280;55457;52.002;5.464;2023-11-19T12:33:10;100530.41;;;20.98;54.81
55187;BME280;55457;52.002;5.464;2023-11-19T12:38:05;100533.22;;;21.08;54.20
55187;BME280;55457;52.002;5.464;2023-11-19T12:40:31;100537.81;;;21.07;54.34
55187;BME280;55457;52.002;5.464;2023-11-19T12:42:56;100537.25;;;21.05;54.71
55187;BME280;55457;52.002;5.464;2023-11-19T12:45:22;100543.22;;;21.07;54.57
55187;BME280;55457;52.002;5.464;2023-11-19T12:47:49;100544.03;;;21.08;54.54
55187;BME280;55457;52.002;5.464;2023-11-19T12:50:15;100535.69;;;21.09;54.28
55187;BME280;55457;52.002;5.464;2023-11-19T12:52:43;100535.69;;;21.09;54.23
55187;BME280;55457;52.002;5.464;2023-11-19T12:55:28;100540.28;;;21.09;54.59
55187;BME280;55457;52.002;5.464;2023-11-19T12:57:53;100537.00;;;21.07;53.91
55187;BME280;55457;52.002;5.464;2023-11-19T13:00:24;100547.53;;;21.03;54.25
55187;BME280;55457;52.002;5.464;2023-11-19T13:02:54;100540.47;;;21.02;54.59
55187;BME280;55457;52.002;5.464;2023-11-19T13:05:33;100539.91;;;21.00;54.50
55187;BME280;55457;52.002;5.464;2023-11-19T13:08:03;100538.03;;;21.01;54.32